createdAt,value
2022-08-27T00:00:33.424Z,9.77
2022-08-27T00:03:00.164Z,9.00
2022-08-27T00:05:26.972Z,9.05
2022-08-27T00:07:54.236Z,11.50
2022-08-27T00:10:24.895Z,8.57
2022-08-27T00:12:52.324Z,7.15
2022-08-27T00:15:19.976Z,10.30
2022-08-27T00:17:47.394Z,8.65
2022-08-27T00:20:17.008Z,7.47
2022-08-27T00:22:44.289Z,7.55
2022-08-27T00:25:13.582Z,10.55
2022-08-27T00:27:40.848Z,7.00
2022-08-27T00:30:10.432Z,8.40
2022-08-27T00:32:37.190Z,8.93
2022-08-27T00:35:04.251Z,9.93
2022-08-27T00:37:31.184Z,10.30
2022-08-27T00:39:57.889Z,10.13
2022-08-27T00:42:24.591Z,11.23
2022-08-27T00:44:51.241Z,8.98
2022-08-27T00:47:26.715Z,8.38
2022-08-27T00:49:58.475Z,10.13
2022-08-27T00:52:31.877Z,12.93
2022-08-27T00:55:09.820Z,10.73
2022-08-27T00:57:39.001Z,9.68
2022-08-27T01:00:10.430Z,9.48
2022-08-27T01:02:38.809Z,10.63
2022-08-27T01:05:12.766Z,8.52
2022-08-27T01:07:41.312Z,8.88
2022-08-27T01:10:12.689Z,9.32
2022-08-27T01:12:39.969Z,11.27
2022-08-27T01:15:11.001Z,6.97
2022-08-27T01:17:41.374Z,10.95
2022-08-27T01:20:14.339Z,8.35
2022-08-27T01:23:19.940Z,9.80
2022-08-27T01:25:46.861Z,8.18
2022-08-27T01:28:14.799Z,8.38
2022-08-27T01:30:42.364Z,10.48
2022-08-27T01:33:17.751Z,9.25
2022-08-27T01:35:47.315Z,10.35
2022-08-27T01:38:30.326Z,12.85
2022-08-27T01:41:01.417Z,9.52
2022-08-27T01:45:55.196Z,11.63
2022-08-27T01:48:22.501Z,8.13
2022-08-27T01:50:50.312Z,10.10
2022-08-27T01:53:26.113Z,8.75
2022-08-27T01:55:54.228Z,10.18
2022-08-27T01:58:23.121Z,9.05
2022-08-27T02:00:56.140Z,16.20
2022-08-27T02:03:23.694Z,9.52
2022-08-27T02:05:50.435Z,9.38
2022-08-27T02:08:17.965Z,10.48
2022-08-27T02:10:45.974Z,12.50
2022-08-27T02:13:13.357Z,9.85
2022-08-27T02:15:41.369Z,9.77
2022-08-27T02:18:09.663Z,12.32
2022-08-27T02:20:36.587Z,9.52
2022-08-27T02:23:04.690Z,10.20
2022-08-27T02:25:31.617Z,7.72
2022-08-27T02:28:00.267Z,12.52
2022-08-27T02:30:29.494Z,8.02
2022-08-27T02:32:56.160Z,8.40
2022-08-27T02:35:24.296Z,13.65
2022-08-27T02:37:51.783Z,10.02
2022-08-27T02:40:22.099Z,9.82
2022-08-27T02:42:49.176Z,10.07
2022-08-27T02:45:16.868Z,10.13
2022-08-27T02:47:43.584Z,11.00
2022-08-27T02:50:11.759Z,13.82
2022-08-27T02:52:38.445Z,9.93
2022-08-27T02:55:06.010Z,9.52
2022-08-27T02:57:36.731Z,14.68
2022-08-27T03:00:06.612Z,10.60
2022-08-27T03:02:33.423Z,12.25
2022-08-27T03:05:00.190Z,8.38
2022-08-27T03:07:27.163Z,10.45
2022-08-27T03:09:53.841Z,10.30
2022-08-27T03:12:20.534Z,10.95
2022-08-27T03:14:51.424Z,9.00
2022-08-27T03:17:36.618Z,12.55
2022-08-27T03:20:05.323Z,10.32
2022-08-27T03:22:32.090Z,9.90
2022-08-27T03:24:58.732Z,9.45
2022-08-27T03:27:25.502Z,10.07
2022-08-27T03:29:52.157Z,9.70
2022-08-27T03:32:18.801Z,10.00
2022-08-27T03:34:45.486Z,12.68
2022-08-27T03:37:12.192Z,9.50
2022-08-27T03:39:38.921Z,10.05
2022-08-27T03:42:05.690Z,9.95
2022-08-27T03:44:32.963Z,12.90
2022-08-27T03:47:00.476Z,8.18
2022-08-27T03:49:27.253Z,8.98
2022-08-27T03:51:55.349Z,9.90
2022-08-27T03:54:22.011Z,9.80
2022-08-27T03:56:49.012Z,9.32
2022-08-27T03:59:15.907Z,11.02
2022-08-27T04:01:44.140Z,9.93
2022-08-27T04:04:12.934Z,9.85
2022-08-27T04:06:40.098Z,11.88
2022-08-27T04:09:06.818Z,13.95
2022-08-27T04:11:34.828Z,8.98
2022-08-27T04:14:04.696Z,10.48
2022-08-27T04:16:48.094Z,9.15
2022-08-27T04:19:17.447Z,9.18
2022-08-27T04:21:44.161Z,8.68
2022-08-27T04:24:12.070Z,12.25
2022-08-27T04:26:42.548Z,9.40
2022-08-27T04:29:09.368Z,11.57
2022-08-27T04:31:36.098Z,9.93
2022-08-27T04:34:03.692Z,13.13
2022-08-27T04:36:30.308Z,8.85
2022-08-27T04:38:56.941Z,11.13
2022-08-27T04:41:25.055Z,12.10
2022-08-27T04:43:57.801Z,9.70
2022-08-27T04:46:30.147Z,9.60
2022-08-27T04:48:58.598Z,9.27
2022-08-27T04:51:25.465Z,12.07
2022-08-27T04:53:52.728Z,9.80
2022-08-27T04:56:24.051Z,14.35
2022-08-27T04:58:51.804Z,12.55
2022-08-27T05:01:24.198Z,8.98
2022-08-27T05:03:51.029Z,10.77
2022-08-27T05:06:18.224Z,9.52
2022-08-27T05:08:45.382Z,9.57
2022-08-27T05:11:15.015Z,12.45
2022-08-27T05:13:43.464Z,10.45
2022-08-27T05:16:16.465Z,12.00
2022-08-27T05:18:48.315Z,10.52
2022-08-27T05:21:27.539Z,12.80
2022-08-27T05:23:56.588Z,10.85
2022-08-27T05:26:23.583Z,12.27
2022-08-27T05:28:50.495Z,12.05
2022-08-27T05:31:19.490Z,10.30
2022-08-27T05:33:47.112Z,10.85
2022-08-27T05:36:34.736Z,13.45
2022-08-27T05:39:03.827Z,19.48
2022-08-27T05:41:33.930Z,11.27
2022-08-27T05:44:24.052Z,10.38
2022-08-27T05:46:52.475Z,10.82
2022-08-27T05:49:19.144Z,11.20
2022-08-27T05:51:45.805Z,10.30
2022-08-27T05:54:18.994Z,12.43
2022-08-27T05:56:46.507Z,13.98
2022-08-27T05:59:31.856Z,15.90
2022-08-27T06:02:02.182Z,14.82
2022-08-27T06:04:29.046Z,11.88
2022-08-27T06:06:55.742Z,14.65
2022-08-27T06:09:25.483Z,12.40
2022-08-27T06:12:00.023Z,14.43
2022-08-27T06:14:27.071Z,12.02
2022-08-27T06:16:54.056Z,12.07
2022-08-27T06:19:21.264Z,16.20
2022-08-27T06:22:01.211Z,12.10
2022-08-27T06:24:36.001Z,13.07
2022-08-27T06:27:03.300Z,14.45
2022-08-27T06:29:29.988Z,16.05
2022-08-27T06:31:56.626Z,13.35
2022-08-27T06:34:23.285Z,15.48
2022-08-27T06:36:49.989Z,13.32
2022-08-27T06:39:17.122Z,13.55
2022-08-27T06:41:45.067Z,13.15
2022-08-27T06:44:13.328Z,14.52
2022-08-27T06:46:40.577Z,12.50
2022-08-27T06:49:08.081Z,13.68
2022-08-27T06:51:36.899Z,12.82
2022-08-27T06:54:09.108Z,15.70
2022-08-27T06:56:36.321Z,13.57
2022-08-27T06:59:06.652Z,14.65
2022-08-27T07:01:41.781Z,13.20
2022-08-27T07:04:11.191Z,13.85
2022-08-27T07:06:39.022Z,15.63
2022-08-27T07:09:06.790Z,14.82
2022-08-27T07:11:33.792Z,13.85
2022-08-27T07:14:00.909Z,12.57
2022-08-27T07:16:29.094Z,16.00
2022-08-27T07:19:03.859Z,17.38
2022-08-27T07:21:32.173Z,15.43
2022-08-27T07:24:03.434Z,16.80
2022-08-27T07:26:32.880Z,15.77
2022-08-27T07:29:00.725Z,17.63
2022-08-27T07:31:28.049Z,17.13
2022-08-27T07:33:54.953Z,15.15
2022-08-27T07:36:23.192Z,16.80
2022-08-27T07:38:59.162Z,17.48
2022-08-27T07:41:31.096Z,17.42
2022-08-27T07:44:20.177Z,17.02
2022-08-27T07:46:49.315Z,19.42
2022-08-27T07:49:17.900Z,15.00
2022-08-27T07:51:44.939Z,18.50
2022-08-27T07:54:11.803Z,18.60
2022-08-27T07:56:38.550Z,17.20
2022-08-27T07:59:05.177Z,18.42
2022-08-27T08:01:31.948Z,15.18
2022-08-27T08:03:58.992Z,18.13
2022-08-27T08:06:25.655Z,18.85
2022-08-27T08:08:52.523Z,21.58
2022-08-27T08:11:20.322Z,19.90
2022-08-27T08:13:47.852Z,17.23
2022-08-27T08:16:15.234Z,17.05
2022-08-27T08:18:41.994Z,17.10
2022-08-27T08:21:13.092Z,20.13
2022-08-27T08:23:41.029Z,17.85
2022-08-27T08:26:08.829Z,22.58
2022-08-27T08:28:35.972Z,19.17
2022-08-27T08:31:02.977Z,17.92
2022-08-27T08:33:31.486Z,18.17
2022-08-27T08:36:13.068Z,17.80
2022-08-27T08:38:40.408Z,20.42
2022-08-27T08:41:23.915Z,20.10
2022-08-27T08:43:51.517Z,21.35
2022-08-27T08:46:46.329Z,19.70
2022-08-27T08:49:34.865Z,22.25
2022-08-27T08:52:26.926Z,19.13
2022-08-27T08:55:08.465Z,20.25
2022-08-27T08:58:08.763Z,20.02
2022-08-27T09:03:03.649Z,18.20
2022-08-27T09:05:30.989Z,21.10
2022-08-27T09:08:33.049Z,18.38
2022-08-27T09:11:20.081Z,22.50
2022-08-27T09:13:55.472Z,20.92
2022-08-27T09:16:23.026Z,23.33
2022-08-27T09:18:52.471Z,23.48
2022-08-27T09:21:41.892Z,23.38
2022-08-27T09:24:23.482Z,22.33
2022-08-27T09:26:50.241Z,20.27
2022-08-27T09:29:21.175Z,24.40
2022-08-27T09:32:06.200Z,24.10
2022-08-27T09:34:42.466Z,28.52
2022-08-27T09:37:33.923Z,22.45
2022-08-27T09:40:13.575Z,22.15
2022-08-27T09:42:55.878Z,22.63
2022-08-27T09:45:26.145Z,26.45
2022-08-27T09:50:49.344Z,20.70
2022-08-27T09:53:30.886Z,23.67
2022-08-27T09:56:01.122Z,21.35
2022-08-27T10:01:06.729Z,24.85
2022-08-27T10:03:33.909Z,26.35
2022-08-27T10:06:00.841Z,22.90
2022-08-27T10:08:39.981Z,21.60
2022-08-27T10:11:09.806Z,20.33
2022-08-27T10:13:46.580Z,23.13
2022-08-27T10:16:52.575Z,19.10
2022-08-27T10:19:37.669Z,21.58
2022-08-27T10:22:11.895Z,20.15
2022-08-27T10:24:51.512Z,21.60
2022-08-27T10:27:29.992Z,15.90
2022-08-27T10:30:10.803Z,22.05
2022-08-27T10:33:10.704Z,20.23
2022-08-27T10:38:45.569Z,19.38
2022-08-27T10:41:28.411Z,19.17
2022-08-27T10:44:25.086Z,21.50
2022-08-27T10:47:29.186Z,22.83
2022-08-27T10:50:03.902Z,20.55
2022-08-27T10:52:37.145Z,19.92
2022-08-27T10:55:27.561Z,21.95
2022-08-27T10:58:06.893Z,16.38
2022-08-27T11:00:58.150Z,16.17
2022-08-27T11:03:34.561Z,14.45
2022-08-27T11:06:06.545Z,15.90
2022-08-27T11:08:42.903Z,17.30
2022-08-27T11:12:03.151Z,14.55
2022-08-27T11:14:28.245Z,16.00
2022-08-27T11:17:02.033Z,19.25
2022-08-27T11:19:42.985Z,14.52
2022-08-27T11:22:23.682Z,12.07
2022-08-27T11:24:56.379Z,13.45
2022-08-27T11:27:28.715Z,13.63
2022-08-27T11:30:00.602Z,13.27
2022-08-27T11:32:35.558Z,13.82
2022-08-27T11:35:13.097Z,13.55
2022-08-27T11:37:45.757Z,14.80
2022-08-27T11:40:59.802Z,12.73
2022-08-27T11:43:29.742Z,11.93
2022-08-27T11:46:02.293Z,15.55
2022-08-27T11:48:41.316Z,13.07
2022-08-27T11:51:28.530Z,15.55
2022-08-27T11:53:58.374Z,11.52
2022-08-27T11:56:31.042Z,9.85
2022-08-27T11:59:11.529Z,13.40
2022-08-27T12:01:39.149Z,10.80
2022-08-27T12:04:19.057Z,10.68
2022-08-27T12:06:53.049Z,10.18
2022-08-27T12:09:23.573Z,13.40
2022-08-27T12:12:16.624Z,10.02
2022-08-27T12:14:49.065Z,12.73
2022-08-27T12:17:18.705Z,9.40
2022-08-27T12:20:14.333Z,11.52
2022-08-27T12:23:05.503Z,12.63
2022-08-27T12:25:32.431Z,12.90
2022-08-27T12:28:05.903Z,12.55
2022-08-27T12:30:36.812Z,12.73
2022-08-27T12:33:14.490Z,10.15
2022-08-27T12:35:51.610Z,10.30
2022-08-27T12:38:34.863Z,11.10
2022-08-27T12:41:09.259Z,13.25
2022-08-27T12:43:38.692Z,8.18
2022-08-27T12:46:11.372Z,9.15
2022-08-27T12:49:34.243Z,10.05
2022-08-27T12:51:55.928Z,9.20
2022-08-27T12:54:37.625Z,10.10
2022-08-27T12:57:25.297Z,11.35
2022-08-27T13:00:12.859Z,10.65
2022-08-27T13:02:58.117Z,11.85
2022-08-27T13:05:25.577Z,8.65
2022-08-27T13:07:53.626Z,11.43
2022-08-27T13:10:31.616Z,10.40
2022-08-27T13:13:11.621Z,10.52
2022-08-27T13:15:48.513Z,16.30
2022-08-27T13:18:16.151Z,13.20
2022-08-27T13:20:43.032Z,12.27
2022-08-27T13:23:27.186Z,9.75
2022-08-27T13:26:14.340Z,10.65
2022-08-27T13:28:42.489Z,11.80
2022-08-27T13:31:10.964Z,12.25
2022-08-27T13:33:39.787Z,13.05
2022-08-27T13:36:07.289Z,11.02
2022-08-27T13:38:47.847Z,14.85
2022-08-27T13:41:24.601Z,14.38
2022-08-27T13:43:53.802Z,19.60
2022-08-27T13:46:26.272Z,13.52
2022-08-27T13:48:56.009Z,16.60
2022-08-27T13:51:42.087Z,17.30
2022-08-27T13:54:16.037Z,16.02
2022-08-27T13:56:57.688Z,14.82
2022-08-27T13:59:27.353Z,14.30
2022-08-27T14:02:09.507Z,15.25
2022-08-27T14:04:36.276Z,11.57
2022-08-27T14:07:13.574Z,9.80
2022-08-27T14:10:08.983Z,9.38
2022-08-27T14:12:38.315Z,9.52
2022-08-27T14:15:23.982Z,9.53
2022-08-27T14:17:51.372Z,10.32
2022-08-27T14:20:19.790Z,9.05
2022-08-27T14:22:47.160Z,8.65
2022-08-27T14:25:15.163Z,12.45
2022-08-27T14:27:49.898Z,9.35
2022-08-27T14:30:28.830Z,8.45
2022-08-27T14:33:00.515Z,9.50
2022-08-27T14:35:29.117Z,8.15
2022-08-27T14:37:56.086Z,7.05
2022-08-27T14:40:22.921Z,7.53
2022-08-27T14:42:49.637Z,8.98
2022-08-27T14:45:17.790Z,11.43
2022-08-27T14:47:44.552Z,9.43
2022-08-27T14:50:12.763Z,10.45
2022-08-27T14:52:40.670Z,11.07
2022-08-27T14:55:10.817Z,10.00
2022-08-27T14:57:38.125Z,8.05
2022-08-27T15:00:07.333Z,9.82
2022-08-27T15:02:35.153Z,8.10
2022-08-27T15:05:11.290Z,8.07
2022-08-27T15:07:40.903Z,8.85
2022-08-27T15:10:12.962Z,12.90
2022-08-27T15:12:40.228Z,9.90
2022-08-27T15:15:08.492Z,10.55
2022-08-27T15:17:35.860Z,8.80
2022-08-27T15:20:08.445Z,9.45
2022-08-27T15:22:37.780Z,8.82
2022-08-27T15:25:08.486Z,9.55
2022-08-27T15:27:38.712Z,10.30
2022-08-27T15:30:11.379Z,12.13
2022-08-27T15:32:41.774Z,11.02
2022-08-27T15:35:13.755Z,11.02
2022-08-27T15:37:42.155Z,10.43
2022-08-27T15:40:10.472Z,9.55
2022-08-27T15:42:37.215Z,10.27
2022-08-27T15:45:05.297Z,10.27
2022-08-27T15:47:33.471Z,13.00
2022-08-27T15:50:00.585Z,11.38
2022-08-27T15:52:33.418Z,10.55
2022-08-27T15:55:16.686Z,11.55
2022-08-27T15:57:43.350Z,11.13
2022-08-27T16:00:10.816Z,11.77
2022-08-27T16:02:37.529Z,10.32
2022-08-27T16:05:04.465Z,15.07
2022-08-27T16:07:31.147Z,12.25
2022-08-27T16:09:57.880Z,10.32
2022-08-27T16:12:27.501Z,10.30
2022-08-27T16:14:55.599Z,8.60
2022-08-27T16:17:23.528Z,13.55
2022-08-27T16:19:50.376Z,10.65
2022-08-27T16:22:17.111Z,11.73
2022-08-27T16:24:43.944Z,10.18
2022-08-27T16:27:10.808Z,9.55
2022-08-27T16:29:39.524Z,9.82
2022-08-27T16:32:11.272Z,10.25
2022-08-27T16:34:39.325Z,9.23
2022-08-27T16:37:06.040Z,9.80
2022-08-27T16:39:35.426Z,10.05
2022-08-27T16:42:04.703Z,9.23
2022-08-27T16:44:32.636Z,9.32
2022-08-27T16:46:59.326Z,9.23
2022-08-27T16:49:44.528Z,9.30
2022-08-27T16:52:11.536Z,8.85
2022-08-27T16:54:38.661Z,9.27
2022-08-27T16:57:05.601Z,9.02
2022-08-27T16:59:32.302Z,10.43
2022-08-27T17:01:59.050Z,8.52
2022-08-27T17:04:30.505Z,9.88
2022-08-27T17:06:59.154Z,8.77
2022-08-27T17:09:26.227Z,10.38
2022-08-27T17:11:56.973Z,7.88
2022-08-27T17:14:24.194Z,6.20
2022-08-27T17:16:53.799Z,7.78
2022-08-27T17:19:26.036Z,7.32
2022-08-27T17:21:54.725Z,7.28
2022-08-27T17:24:21.493Z,6.15
2022-08-27T17:26:48.109Z,7.55
2022-08-27T17:29:15.070Z,7.18
2022-08-27T17:31:43.496Z,6.18
2022-08-27T17:34:23.869Z,6.97
2022-08-27T17:36:52.184Z,6.65
2022-08-27T17:39:19.737Z,6.65
2022-08-27T17:41:49.661Z,5.82
2022-08-27T17:44:29.911Z,5.93
2022-08-27T17:47:00.984Z,8.85
2022-08-27T17:49:28.008Z,5.50
2022-08-27T17:51:58.656Z,5.68
2022-08-27T17:54:41.457Z,4.80
2022-08-27T17:57:18.763Z,7.57
2022-08-27T17:59:45.973Z,5.28
2022-08-27T18:02:27.987Z,6.78
2022-08-27T18:04:55.221Z,5.85
2022-08-27T18:07:22.248Z,6.07
2022-08-27T18:09:51.057Z,6.32
2022-08-27T18:12:21.540Z,5.45
2022-08-27T18:17:18.294Z,7.32
2022-08-27T18:19:45.803Z,5.68
2022-08-27T18:22:12.620Z,5.63
2022-08-27T18:24:39.292Z,6.22
2022-08-27T18:27:06.387Z,6.43
2022-08-27T18:29:33.262Z,7.35
2022-08-27T18:31:59.977Z,8.50
2022-08-27T18:34:27.771Z,6.80
2022-08-27T18:36:54.467Z,8.70
2022-08-27T18:39:21.168Z,10.60
2022-08-27T18:41:52.851Z,11.18
2022-08-27T18:44:19.561Z,9.38
2022-08-27T18:46:46.461Z,11.55
2022-08-27T18:49:13.244Z,10.75
2022-08-27T18:51:47.121Z,12.35
2022-08-27T18:54:16.490Z,9.05
2022-08-27T18:56:43.159Z,9.43
2022-08-27T18:59:10.811Z,11.00
2022-08-27T19:01:37.679Z,11.43
2022-08-27T19:04:05.181Z,10.00
2022-08-27T19:06:32.282Z,11.13
2022-08-27T19:08:59.040Z,10.70
2022-08-27T19:11:25.710Z,10.82
2022-08-27T19:13:52.465Z,11.15
2022-08-27T19:16:24.751Z,12.05
2022-08-27T19:18:51.948Z,8.75
2022-08-27T19:21:18.651Z,10.32
2022-08-27T19:23:45.392Z,8.88
2022-08-27T19:26:18.269Z,12.35
2022-08-27T19:28:45.711Z,10.73
2022-08-27T19:31:13.937Z,9.73
2022-08-27T19:33:41.606Z,11.50
2022-08-27T19:36:15.052Z,10.35
2022-08-27T19:38:43.572Z,9.52
2022-08-27T19:41:10.315Z,11.32
2022-08-27T19:43:37.041Z,9.55
2022-08-27T19:46:05.334Z,9.88
2022-08-27T19:48:34.458Z,9.48
2022-08-27T19:51:01.256Z,9.63
2022-08-27T19:53:27.958Z,12.32
2022-08-27T19:55:54.858Z,10.77
2022-08-27T19:58:22.009Z,9.07
2022-08-27T20:00:48.845Z,9.20
2022-08-27T20:03:15.931Z,10.77
2022-08-27T20:05:43.672Z,9.90
2022-08-27T20:08:10.514Z,8.48
2022-08-27T20:10:40.145Z,9.93
2022-08-27T20:13:07.940Z,11.48
2022-08-27T20:15:36.145Z,8.55
2022-08-27T20:18:05.855Z,8.02
2022-08-27T20:20:33.708Z,9.20
2022-08-27T20:23:03.599Z,11.68
2022-08-27T20:25:30.697Z,10.73
2022-08-27T20:27:57.463Z,10.15
2022-08-27T20:30:26.692Z,11.30
2022-08-27T20:32:53.848Z,10.35
2022-08-27T20:35:21.536Z,10.68
2022-08-27T20:37:48.274Z,8.35
2022-08-27T20:40:19.300Z,9.70
2022-08-27T20:42:46.113Z,13.85
2022-08-27T20:45:13.965Z,9.02
2022-08-27T20:47:43.269Z,10.15
2022-08-27T20:50:12.774Z,10.02
2022-08-27T20:52:40.958Z,8.75
2022-08-27T20:55:09.598Z,10.35
2022-08-27T20:57:36.281Z,9.43
2022-08-27T21:00:19.377Z,7.53
2022-08-27T21:02:46.887Z,13.43
2022-08-27T21:05:16.542Z,13.43
2022-08-27T21:07:44.515Z,8.68
2022-08-27T21:10:11.195Z,10.77
2022-08-27T21:12:37.921Z,12.85
2022-08-27T21:15:06.326Z,13.38
2022-08-27T21:17:33.046Z,13.40
2022-08-27T21:19:59.911Z,14.90
2022-08-27T21:22:27.172Z,10.48
2022-08-27T21:24:54.233Z,10.50
2022-08-27T21:27:21.845Z,15.73
2022-08-27T21:29:49.049Z,8.70
2022-08-27T21:32:16.688Z,11.65
2022-08-27T21:34:43.410Z,10.82
2022-08-27T21:37:12.113Z,9.48
2022-08-27T21:39:40.132Z,11.82
2022-08-27T21:42:07.429Z,7.05
2022-08-27T21:44:34.782Z,9.63
2022-08-27T21:47:03.571Z,11.43
2022-08-27T21:49:32.428Z,8.23
2022-08-27T21:52:00.742Z,9.68
2022-08-27T21:54:27.942Z,9.35
2022-08-27T21:56:54.893Z,9.77
2022-08-27T21:59:21.885Z,8.25
2022-08-27T22:01:52.958Z,8.38
2022-08-27T22:04:27.471Z,10.20
2022-08-27T22:06:57.731Z,10.45
2022-08-27T22:09:24.586Z,10.63
2022-08-27T22:11:51.242Z,7.47
2022-08-27T22:14:17.976Z,8.73
2022-08-27T22:16:44.642Z,10.38
2022-08-27T22:19:11.306Z,8.23
2022-08-27T22:21:38.026Z,8.88
2022-08-27T22:24:04.994Z,8.52
2022-08-27T22:26:31.817Z,15.05
2022-08-27T22:28:58.589Z,9.15
2022-08-27T22:31:25.430Z,9.25
2022-08-27T22:33:52.501Z,9.13
2022-08-27T22:36:19.354Z,7.80
2022-08-27T22:38:46.150Z,8.20
2022-08-27T22:41:15.011Z,8.68
2022-08-27T22:43:45.429Z,8.40
2022-08-27T22:46:12.534Z,8.80
2022-08-27T22:48:39.454Z,9.10
2022-08-27T22:51:06.241Z,8.65
2022-08-27T22:53:36.091Z,8.70
2022-08-27T22:56:06.020Z,8.30
2022-08-27T22:58:32.692Z,7.30
2022-08-27T23:00:59.344Z,11.05
2022-08-27T23:03:26.126Z,12.32
2022-08-27T23:05:52.992Z,9.73
2022-08-27T23:08:19.797Z,10.18
2022-08-27T23:10:46.559Z,12.80
2022-08-27T23:13:13.549Z,10.13
2022-08-27T23:15:41.038Z,8.30
2022-08-27T23:18:08.207Z,10.23
2022-08-27T23:20:35.010Z,11.32
2022-08-27T23:23:02.702Z,11.73
2022-08-27T23:25:48.520Z,10.88
2022-08-27T23:28:16.011Z,11.98
2022-08-27T23:30:45.631Z,9.43
2022-08-27T23:33:13.666Z,11.73
2022-08-27T23:35:44.255Z,10.27
2022-08-27T23:38:11.396Z,12.15
2022-08-27T23:40:40.077Z,14.15
2022-08-27T23:43:06.839Z,14.50
2022-08-27T23:45:38.325Z,9.30
2022-08-27T23:48:07.982Z,9.73
2022-08-27T23:50:35.046Z,8.02
2022-08-27T23:53:02.998Z,11.27
2022-08-27T23:55:29.688Z,10.65
2022-08-27T23:57:57.727Z,12.13
